Sedgwick Reserve, California Weather observations

Data are for 10 minute period ending at time listed.
 Day   Time   Solar   Ave.   Ave.  Ave.  Vector  Max.   Baro.   Total    
  of    of     Rad.   Air    Rel.  Wind   Wind   Wind  Press.  Precip.   
Year   Day            Temp.  Hum.  Speed  Dir.   Gust                    
2016   (PST)  Kw/m2    F      %     mph   deg.    mph    mb.     in.     
-------------------------------------------------------------------------
 273    9:10   0.52   86.3    29    3.8   120     6.2   976.0    0.00 
 273    9:20   0.55   86.3    29    4.6   138     8.9   976.0    0.00 
 273    9:30   0.57   87.0    28    3.8   134     7.3   975.9    0.00 
 273    9:40   0.59   86.9    28    5.4   178     8.9   975.9    0.00 
 273    9:50   0.61   86.9    28    5.0   161    10.8   975.9    0.00 
 273   10:00   0.64   87.1    28    6.0   174    11.8   975.8    0.00 
 273   10:10   0.66   87.4    28    5.4   174     9.3   975.7    0.00 
 273   10:20   0.68   88.4    27    4.6   191    10.7   975.7    0.00 
 273   10:30   0.69   87.4    28    6.5   213     9.6   975.6    0.00 
 273   10:40   0.70   86.8    29    7.1   239    12.6   975.6    0.00 
 273   10:50   0.72   87.6    28    6.3   214    13.5   975.5    0.00 
 273   11:00   0.73   87.6    28    6.1   220    10.2   975.4    0.00 
 273   11:10   0.71   88.1    28    8.1   241    14.8   975.4    0.00 
 273   11:20   0.74   88.1    27    7.8   237    15.7   975.3    0.00 
 273   11:30   0.75   88.2    27    7.3   217    12.4   975.2    0.00 
 273   11:40   0.75   88.1    28    8.2   232    14.5   975.2    0.00 
 273   11:50   0.75   88.8    27    8.1   200    14.5   975.2    0.00 
 273   12:00   0.75   88.6    26    7.2   241    15.1   975.1    0.00 
 273   12:10   0.75   88.9    26    8.4   216    17.8   975.0    0.00 
 273   12:20   0.75   90.2    25    6.9   205    13.4   974.9    0.00 
 273   12:30   0.74   89.2    26    8.4   245    13.8   974.8    0.00 
 273   12:40   0.74   89.4    26    8.4   216    15.7   974.7    0.00 
 273   12:50   0.73   89.9    26    9.4   258    14.8   974.6    0.00 
 273   13:00   0.72   90.1    26    9.4   249    15.3   974.5    0.00 
 273   13:10   0.70   90.2    25   10.3   250    18.0   974.4    0.00 
 273   13:20   0.69   89.4    26   10.7   244    17.7   974.4    0.00 
 273   13:30   0.68   89.2    26   10.9   237    19.1   974.3    0.00 
 273   13:40   0.66   89.8    25   10.2   240    19.2   974.3    0.00 
 273   13:50   0.64   88.8    26   11.5   246    17.6   974.4    0.00 
 273   14:00   0.62   88.5    26   11.7   245    18.4   974.4    0.00 
 273   14:10   0.60   88.5    26   10.8   234    18.3   974.4    0.00 
 273   14:20   0.58   88.9    26    9.9   238    14.8   974.4    0.00 
 273   14:30   0.56   88.3    26   10.5   216    17.3   974.4    0.00 
 273   14:40   0.53   88.6    26    7.6   222    13.8   974.4    0.00 
 273   14:50   0.50   88.7    26    9.2   242    14.6   974.4    0.00 
 273   15:00   0.47   88.5    26    8.3   217    14.9   974.4    0.00 
 273   15:10   0.44   88.0    27    8.8   230    14.5   974.4    0.00 
 273   15:20   0.42   88.0    26    9.2   242    13.8   974.3    0.00 
 273   15:30   0.39   87.4    27    9.5   251    13.7   974.3    0.00 
 273   15:40   0.36   87.4    27    9.5   260    13.5   974.3    0.00 
 273   15:50   0.33   87.3    27    8.3   244    12.9   974.3    0.00 
 273   16:00   0.29   86.6    28    8.2   237    13.2   974.2    0.00 
 273   16:10   0.26   87.5    27    6.3   239    10.2   974.2    0.00 
 273   16:20   0.23   86.9    28    5.9   249    11.3   974.3    0.00 
 273   16:30   0.20   86.3    28    6.6   240    11.1   974.3    0.00 
 273   16:40   0.17   86.2    30    6.3   269    11.1   974.4    0.00 
 273   16:50   0.14   85.9    32    4.3   276     8.4   974.5    0.00 
 273   17:00   0.11   85.4    32    5.8   258     9.6   974.5    0.00 
 273   17:10   0.08   84.9    32    5.2   272     7.6   974.6    0.00 
 273   17:20   0.06   83.9    34    5.7   279     7.8   974.6    0.00 
 273   17:30   0.03   82.3    35    5.7   280     8.6   974.7    0.00 
 273   17:40   0.01   81.1    36    5.4   288     8.6   974.7    0.00 
 273   17:50   0.00   80.1    38    4.7   284     7.7   974.8    0.00 
 273   18:00   0.00   79.0    39    2.8   309     5.9   974.8    0.00 
 273   18:10   0.00   78.2    40    2.3   339     4.5   974.9    0.00 
 273   18:20   0.00   78.0    40    2.9   332     4.6   974.9    0.00 
 273   18:30   0.00   77.5    40    2.6   314     4.7   974.9    0.00 
 273   18:40   0.00   76.0    42    1.9   283     2.9   975.0    0.00 
 273   18:50   0.00   75.1    43    0.3   347     1.2   975.0    0.00 
 273   19:00   0.00   73.9    44    0.0    37     0.1   975.1    0.00 
 273   19:10   0.00   72.2    46    1.8   102     3.4   975.2    0.00 
 273   19:20   0.00   70.7    50    2.6   118     3.8   975.2    0.00 
 273   19:30   0.00   69.7    53    1.9    86     3.3   975.2    0.00 
 273   19:40   0.00   69.0    56    1.7    54     2.7   975.3    0.00 
 273   19:50   0.00   68.0    56    2.1    40     3.2   975.3    0.00 
 273   20:00   0.00   66.5    57    1.2    19     2.8   975.3    0.00 
 273   20:10   0.00   66.5    59    0.2   288     1.1   975.4    0.00 
 273   20:20   0.00   65.5    58    0.8    16     2.1   975.4    0.00 
 273   20:30   0.00   64.8    58    1.5     2     2.7   975.4    0.00 
 273   20:40   0.00   64.7    60    0.8   278     1.7   975.3    0.00 
 273   20:50   0.00   63.5    60    0.0   276     0.6   975.3    0.00 
 273   21:00   0.00   63.1    62    1.1   359     2.3   975.3    0.00 
 273   21:10   0.00   63.0    61    0.9   342     2.7   975.3    0.00 
 273   21:20   0.00   62.9    61    0.3   269     2.0   975.3    0.00 
 273   21:30   0.00   63.0    61    0.2   246     1.4   975.3    0.00 
 273   21:40   0.00   62.5    60    0.0     0     0.0   975.3    0.00 
 273   21:50   0.00   62.1    62    0.5   242     1.2   975.2    0.00 
 273   22:00   0.00   62.0    62    0.3   242     1.1   975.2    0.00 
 273   22:10   0.00   61.7    63    0.0    53     0.9   975.2    0.00 
 273   22:20   0.00   61.6    62    1.0   354     3.4   975.1    0.00 
 273   22:30   0.00   61.2    63    1.5   346     3.7   975.1    0.00 
 273   22:40   0.00   61.3    61    3.1   351     5.2   975.1    0.00 
 273   22:50   0.00   61.5    63    1.3   298     2.7   975.1    0.00 
 273   23:00   0.00   62.1    62    0.9   277     2.6   975.0    0.00 
 273   23:10   0.00   61.8    60    1.9     2     4.2   975.0    0.00 
 273   23:20   0.00   61.2    64    1.2   246     2.3   974.9    0.00 
 273   23:30   0.00   62.0    60    1.5    13     2.3   974.8    0.00 
 273   23:40   0.00   61.9    59    0.9     0     2.0   974.8    0.00 
 273   23:50   0.00   61.6    60    0.6     9     2.5   974.8    0.00 
 274    0:00   0.00   61.2    62    0.5   241     2.0   974.8    0.00 
 274    0:10   0.00   61.2    61    0.1     1     1.5   974.7    0.00 
 274    0:20   0.00   61.2    61    0.2    11     1.2   974.7    0.00 
 274    0:30   0.00   61.2    61    0.3   274     1.6   974.7    0.00 
 274    0:40   0.00   61.2    60    1.0    15     2.9   974.7    0.00 
 274    0:50   0.00   61.1    61    1.0   358     2.8   974.7    0.00 
 274    1:00   0.00   61.2    61    1.1   279     1.8   974.8    0.00 
 274    1:10   0.00   60.8    60    2.7     1     4.6   974.8    0.00 
 274    1:20   0.00   60.8    61    1.2   282     2.4   974.8    0.00 
 274    1:30   0.00   61.7    59    0.3    32     1.3   974.7    0.00 
 274    1:40   0.00   61.0    61    0.3   244     1.2   974.7    0.00 
 274    1:50   0.00   61.0    59    0.0   260     0.6   974.6    0.00 
 274    2:00   0.00   60.5    60    0.2   269     1.5   974.6    0.00 
 274    2:10   0.00   61.0    60    1.6   264     2.6   974.6    0.00 
 274    2:20   0.00   61.5    58    0.4   264     2.0   974.5    0.00 
 274    2:30   0.00   60.7    59    0.3   284     1.5   974.5    0.00 
 274    2:40   0.00   60.1    60    0.1    10     1.6   974.4    0.00 
 274    2:50   0.00   60.0    60    1.9     7     2.9   974.3    0.00 
 274    3:00   0.00   59.7    61    0.9   358     3.1   974.4    0.00 
 274    3:10   0.00   59.8    61    0.1   276     0.7   974.4    0.00 
 274    3:20   0.00   59.6    61    0.2   336     1.2   974.4    0.00 
 274    3:30   0.00   60.2    60    1.0   353     2.2   974.4    0.00 
 274    3:40   0.00   59.2    63    0.4   238     1.4   974.4    0.00 
 274    3:50   0.00   59.5    63    1.1   241     2.0   974.4    0.00 
 274    4:00   0.00   59.0    63    0.6   266     2.0   974.5    0.00 
 274    4:10   0.00   58.3    64    0.1   184     0.7   974.6    0.00 
 274    4:20   0.00   58.2    65    0.0     0     0.0   974.6    0.00 
 274    4:30   0.00   57.6    66    1.3   129     2.5   974.7    0.00 
 274    4:40   0.00   56.6    67    1.4   128     2.3   974.8    0.00 
 274    4:50   0.00   55.9    68    0.9   138     2.3   974.8    0.00 
 274    5:00   0.00   55.5    69    1.3     2     2.0   974.8    0.00 
 274    5:10   0.00   55.1    70    2.3     3     2.8   974.9    0.00 
 274    5:20   0.00   55.9    69    1.4   358     2.1   975.0    0.00 
 274    5:30   0.00   55.0    70    0.0     0     0.0   975.0    0.00 
 274    5:40   0.00   54.5    71    0.1   107     0.9   975.0    0.00 
 274    5:50   0.00   55.0    71    1.6   267     2.4   975.1    0.00 
 274    6:00   0.00   53.9    72    3.0    10     4.6   975.2    0.00 
 274    6:10   0.01   54.1    72    2.2     7     4.4   975.3    0.00 
 274    6:20   0.02   53.7    72    1.1   238     1.8   975.4    0.00 
 274    6:30   0.06   55.1    70    0.3   275     1.5   975.4    0.00 
 274    6:40   0.08   55.9    67    0.0     0     0.0   975.4    0.00 
 274    6:50   0.11   56.9    65    0.0     0     0.0   975.4    0.00 
 274    7:00   0.14   59.3    61    0.0     0     0.0   975.5    0.00 
 274    7:10   0.17   61.1    57    0.3    68     1.5   975.5    0.00 
 274    7:20   0.20   62.6    56    0.0     0     0.0   975.5    0.00 
 274    7:30   0.23   64.4    54    0.1   129     1.2   975.6    0.00 
 274    7:40   0.26   66.6    51    0.0   151     0.4   975.7    0.00 
 274    7:50   0.29   68.8    48    0.1   111     0.8   975.8    0.00 
 274    8:00   0.33   69.6    48    0.1   171     1.2   975.9    0.00 
 274    8:10   0.36   70.7    46    1.2   136     3.0   976.0    0.00 
 274    8:20   0.39   71.0    46    2.2   126     3.5   976.2    0.00 
 274    8:30   0.42   72.2    44    2.0   138     3.1   976.2    0.00 
 274    8:40   0.45   74.0    42    2.5   137     4.0   976.2    0.00 
 274    8:50   0.47   74.9    42    3.4   134     5.3   976.2    0.00 
 274    9:00   0.50   75.4    43    4.2   124     6.6   976.3    0.00 

Return to Sedgwick Reserve graphs page.


Western Regional Climate Center,wrcc@dri.edu